createdAt,value
2022-09-18T00:01:34.569Z,-11595.00
2022-09-18T00:04:03.844Z,-11595.00
2022-09-18T00:06:33.326Z,-11595.00
2022-09-18T00:09:04.139Z,-11595.00
2022-09-18T00:11:38.120Z,-11595.00
2022-09-18T00:14:06.231Z,-11595.00
2022-09-18T00:16:35.396Z,-11595.00
2022-09-18T00:19:05.476Z,-11595.00
2022-09-18T00:21:32.809Z,-11595.00
2022-09-18T00:24:00.917Z,-11595.00
2022-09-18T00:26:28.319Z,-11595.00
2022-09-18T00:28:55.835Z,-11595.00
2022-09-18T00:31:25.757Z,-11595.00
2022-09-18T00:33:53.268Z,-11595.00
2022-09-18T00:36:20.695Z,-11595.00
2022-09-18T00:38:47.141Z,-11595.00
2022-09-18T00:41:30.061Z,-11595.00
2022-09-18T00:44:36.854Z,-11339.66
2022-09-18T00:47:12.086Z,-11339.66
2022-09-18T00:49:42.760Z,-11339.66
2022-09-18T00:52:10.759Z,-11339.66
2022-09-18T00:54:40.090Z,-11339.66
2022-09-18T00:57:11.745Z,-11084.25
2022-09-18T00:59:42.871Z,-11084.25
2022-09-18T01:02:09.476Z,-11084.25
2022-09-18T01:04:38.355Z,-11084.25
2022-09-18T01:07:07.633Z,-11084.25
2022-09-18T01:09:52.758Z,-11084.25
2022-09-18T01:12:29.761Z,-11084.25
2022-09-18T01:15:09.443Z,-11084.25
2022-09-18T01:17:43.458Z,-11084.25
2022-09-18T01:20:13.281Z,-11084.25
2022-09-18T01:23:01.117Z,-11084.25
2022-09-18T01:25:56.368Z,-11339.66
2022-09-18T01:28:34.519Z,-11339.66
2022-09-18T01:31:05.746Z,-11339.66
2022-09-18T01:33:40.044Z,-11339.66
2022-09-18T01:36:12.668Z,-11339.66
2022-09-18T01:38:50.990Z,-11339.66
2022-09-18T01:41:29.586Z,-11339.66
2022-09-18T01:44:08.303Z,-11339.66
2022-09-18T01:46:39.190Z,-11595.00
2022-09-18T01:49:13.229Z,-11595.00
2022-09-18T01:51:58.087Z,-11595.00
2022-09-18T01:54:29.454Z,-11595.00
2022-09-18T01:57:02.599Z,-11595.00
2022-09-18T01:59:39.124Z,-11595.00
2022-09-18T02:02:14.967Z,-11850.38
2022-09-18T02:04:45.281Z,-11850.38
2022-09-18T02:07:59.966Z,-11850.38
2022-09-18T02:10:30.715Z,-11850.38
2022-09-18T02:12:57.979Z,-11850.38
2022-09-18T02:15:27.189Z,-12105.69
2022-09-18T02:18:01.521Z,-12105.69
2022-09-18T02:20:34.166Z,-12105.69
2022-09-18T02:23:04.800Z,-12105.69
2022-09-18T02:25:47.506Z,-11850.38
2022-09-18T02:28:16.057Z,-11850.38
2022-09-18T02:30:42.896Z,-11850.38
2022-09-18T02:33:34.271Z,-11850.38
2022-09-18T02:36:33.409Z,-12105.69
2022-09-18T02:39:22.832Z,-12105.69
2022-09-18T02:42:10.634Z,-12105.69
2022-09-18T02:44:56.387Z,-12105.69
2022-09-18T02:47:40.974Z,-12105.69
2022-09-18T02:50:30.057Z,-12105.69
2022-09-18T02:53:25.203Z,-12105.69
2022-09-18T02:56:00.164Z,-12105.69
2022-09-18T02:58:45.150Z,-12105.69
2022-09-18T03:01:13.841Z,-12105.69
2022-09-18T03:03:43.260Z,-12105.69
2022-09-18T03:06:09.899Z,-12105.69
2022-09-18T03:08:36.800Z,-12105.69
2022-09-18T03:11:06.275Z,-12105.69
2022-09-18T03:13:33.164Z,-12105.69
2022-09-18T03:15:59.638Z,-12105.69
2022-09-18T03:18:26.742Z,-12105.69
2022-09-18T03:20:53.287Z,-12105.69
2022-09-18T03:23:19.739Z,-12105.69
2022-09-18T03:25:49.164Z,-12105.69
2022-09-18T03:28:15.567Z,-12105.69
2022-09-18T03:30:44.044Z,-12105.69
2022-09-18T03:33:10.545Z,-12105.69
2022-09-18T03:35:36.931Z,-12105.69
2022-09-18T03:38:06.861Z,-12105.69
2022-09-18T03:40:36.454Z,-12105.69
2022-09-18T03:43:05.756Z,-12105.69
2022-09-18T03:45:34.321Z,-12105.69
2022-09-18T03:48:00.864Z,-12105.69
2022-09-18T03:50:27.315Z,-12105.69
2022-09-18T03:52:53.757Z,-12105.69
2022-09-18T03:55:20.137Z,-12105.69
2022-09-18T03:57:47.053Z,-12107.19
2022-09-18T04:00:14.713Z,-12107.19
2022-09-18T04:02:42.128Z,-12107.19
2022-09-18T04:05:10.113Z,-12107.19
2022-09-18T04:07:36.908Z,-12107.19
2022-09-18T04:10:04.003Z,-12107.19
2022-09-18T04:12:30.735Z,-12107.19
2022-09-18T04:14:58.447Z,-12107.19
2022-09-18T04:17:24.995Z,-12107.19
2022-09-18T04:19:53.798Z,-12107.19
2022-09-18T04:22:23.976Z,-12107.19
2022-09-18T04:24:50.570Z,-12107.19
2022-09-18T04:27:17.278Z,-12107.19
2022-09-18T04:29:44.064Z,-12107.19
2022-09-18T04:32:10.635Z,-12107.19
2022-09-18T04:34:37.750Z,-12107.19
2022-09-18T04:37:09.413Z,-12107.19
2022-09-18T04:39:36.917Z,-12107.19
2022-09-18T04:42:05.276Z,-12107.19
2022-09-18T04:44:32.988Z,-12107.19
2022-09-18T04:47:00.425Z,-12107.19
2022-09-18T04:49:27.077Z,-12107.19
2022-09-18T04:51:53.806Z,-12107.19
2022-09-18T04:54:20.223Z,-12107.19
2022-09-18T04:56:46.829Z,-12107.19
2022-09-18T04:59:13.608Z,-12107.19
2022-09-18T05:01:40.899Z,-12107.19
2022-09-18T05:04:07.451Z,-12107.19
2022-09-18T05:06:35.751Z,-12107.19
2022-09-18T05:09:02.602Z,-12107.19
2022-09-18T05:11:29.529Z,-12107.19
2022-09-18T05:13:56.978Z,-12107.19
2022-09-18T05:16:26.967Z,-12107.19
2022-09-18T05:18:53.616Z,-12107.19
2022-09-18T05:21:20.214Z,-12107.19
2022-09-18T05:23:50.060Z,-12107.19
2022-09-18T05:26:19.603Z,-12107.19
2022-09-18T05:28:50.152Z,-12107.19
2022-09-18T05:31:19.707Z,-12107.19
2022-09-18T05:33:46.902Z,-12107.19
2022-09-18T05:36:13.820Z,-12107.19
2022-09-18T05:38:40.291Z,-12107.19
2022-09-18T05:41:07.914Z,-12107.19
2022-09-18T05:43:34.284Z,-12107.19
2022-09-18T05:46:05.198Z,-12107.19
2022-09-18T05:48:35.062Z,-12107.19
2022-09-18T05:51:04.945Z,-12107.19
2022-09-18T05:53:31.856Z,-12107.19
2022-09-18T05:56:05.935Z,-12107.19
2022-09-18T05:58:36.193Z,-12107.19
2022-09-18T06:01:05.659Z,-12107.19
2022-09-18T06:03:32.377Z,-12107.19
2022-09-18T06:05:59.135Z,-12107.19
2022-09-18T06:08:26.790Z,-12107.19
2022-09-18T06:10:54.912Z,-12107.19
2022-09-18T06:13:22.377Z,-12107.19
2022-09-18T06:15:52.874Z,-12107.19
2022-09-18T06:18:22.168Z,-12107.19
2022-09-18T06:20:54.338Z,-12107.19
2022-09-18T06:23:26.229Z,-12107.19
2022-09-18T06:26:04.568Z,-12107.19
2022-09-18T06:28:32.477Z,-12107.19
2022-09-18T06:31:02.855Z,-12107.19
2022-09-18T06:33:29.843Z,-12107.19
2022-09-18T06:35:56.511Z,-12107.19
2022-09-18T06:38:25.920Z,-12107.19
2022-09-18T06:40:54.913Z,-12107.19
2022-09-18T06:43:23.830Z,-12107.19
2022-09-18T06:45:52.391Z,-12107.19
2022-09-18T06:48:19.005Z,-12107.19
2022-09-18T06:50:54.663Z,-12107.19
2022-09-18T06:53:25.083Z,-12107.19
2022-09-18T06:55:52.423Z,-12107.19
2022-09-18T06:58:20.269Z,-12107.19
2022-09-18T07:00:47.315Z,-12107.19
2022-09-18T07:03:14.217Z,-12107.19
2022-09-18T07:05:43.106Z,-12107.19
2022-09-18T07:08:10.303Z,-12107.19
2022-09-18T07:10:38.998Z,-12107.19
2022-09-18T07:13:09.406Z,-12107.19
2022-09-18T07:15:35.947Z,-12107.19
2022-09-18T07:18:09.732Z,-12107.19
2022-09-18T07:20:37.528Z,-12107.19
2022-09-18T07:23:04.885Z,-12107.19
2022-09-18T07:25:34.943Z,-12105.69
2022-09-18T07:28:09.480Z,-12105.69
2022-09-18T07:30:38.148Z,-12107.19
2022-09-18T07:33:07.308Z,-12107.19
2022-09-18T07:35:33.851Z,-12107.19
2022-09-18T07:38:09.942Z,-12107.19
2022-09-18T07:40:37.860Z,-12107.19
2022-09-18T07:43:09.534Z,-12107.19
2022-09-18T07:45:36.568Z,-12107.19
2022-09-18T07:48:07.760Z,-12107.19
2022-09-18T07:50:35.495Z,-12107.19
2022-09-18T07:53:07.569Z,-12107.19
2022-09-18T07:55:37.161Z,-12107.19
2022-09-18T07:58:08.437Z,-12107.19
2022-09-18T08:00:37.130Z,-12107.19
2022-09-18T08:03:10.238Z,-12107.19
2022-09-18T08:05:37.485Z,-12107.19
2022-09-18T08:08:04.325Z,-12107.19
2022-09-18T08:10:31.224Z,-12107.19
2022-09-18T08:13:03.699Z,-12107.19
2022-09-18T08:15:34.258Z,-12107.19
2022-09-18T08:18:03.632Z,-12107.19
2022-09-18T08:20:35.131Z,-12107.19
2022-09-18T08:23:07.015Z,-12107.19
2022-09-18T08:25:37.268Z,-12107.19
2022-09-18T08:28:09.995Z,-12107.19
2022-09-18T08:30:36.559Z,-12107.19
2022-09-18T08:33:07.401Z,-12107.19
2022-09-18T08:35:34.386Z,-12107.19
2022-09-18T08:38:04.159Z,-12107.19
2022-09-18T08:40:49.943Z,-12107.19
2022-09-18T08:43:36.723Z,-12107.19
2022-09-18T08:46:15.165Z,-12105.69
2022-09-18T08:48:51.671Z,-12107.19
2022-09-18T08:51:59.576Z,-12105.69
2022-09-18T08:54:53.504Z,-12105.69
2022-09-18T08:57:33.741Z,-12105.69
2022-09-18T09:00:27.446Z,-12105.69
2022-09-18T09:03:03.060Z,-12105.69
2022-09-18T09:05:37.795Z,-12105.69
2022-09-18T09:08:27.475Z,-12105.69
2022-09-18T09:11:20.365Z,-12105.69
2022-09-18T09:13:46.851Z,-12105.69
2022-09-18T09:16:42.840Z,-12105.69
2022-09-18T09:19:27.032Z,-12105.69
2022-09-18T09:22:09.972Z,-12105.69
2022-09-18T09:24:44.245Z,-12105.69
2022-09-18T09:27:26.777Z,-12105.69
2022-09-18T09:30:03.857Z,-12105.69
2022-09-18T09:32:49.853Z,-12105.69
2022-09-18T09:35:16.283Z,-12105.69
2022-09-18T09:37:46.305Z,-12105.69
2022-09-18T09:40:41.904Z,-12105.69
2022-09-18T09:43:23.787Z,-12107.19
2022-09-18T09:45:57.238Z,-12105.69
2022-09-18T09:48:28.794Z,-12107.19
2022-09-18T09:51:03.327Z,-12107.19
2022-09-18T09:53:37.679Z,-12105.69
2022-09-18T09:56:30.759Z,-12105.69
2022-09-18T09:59:13.168Z,-12105.69
2022-09-18T10:01:46.030Z,-12105.69
2022-09-18T10:04:42.902Z,-12107.19
2022-09-18T10:08:02.179Z,-12107.19
2022-09-18T10:10:45.479Z,-12107.19
2022-09-18T10:13:15.289Z,-12107.19
2022-09-18T10:15:46.944Z,-12107.19
2022-09-18T10:18:23.533Z,-12107.19
2022-09-18T10:20:58.373Z,-12107.19
2022-09-18T10:23:49.900Z,-12107.19
2022-09-18T10:26:37.209Z,-12107.19
2022-09-18T10:29:03.851Z,-12107.19
2022-09-18T10:32:12.691Z,-12107.19
2022-09-18T10:34:45.631Z,-12107.19
2022-09-18T10:37:38.590Z,-12107.19
2022-09-18T10:40:08.392Z,-12107.19
2022-09-18T10:42:41.412Z,-12107.19
2022-09-18T10:45:23.902Z,-12107.19
2022-09-18T10:48:01.898Z,-12107.19
2022-09-18T10:50:34.093Z,-12107.19
2022-09-18T10:53:28.480Z,-12107.19
2022-09-18T10:56:14.990Z,-12107.19
2022-09-18T10:58:45.386Z,-12107.19
2022-09-18T11:01:16.243Z,-12107.19
2022-09-18T11:03:59.507Z,-12107.19
2022-09-18T11:06:28.472Z,-12107.19
2022-09-18T11:08:57.212Z,-12107.19
2022-09-18T11:11:39.069Z,-12107.19
2022-09-18T11:14:15.474Z,-12107.19
2022-09-18T11:16:50.062Z,-12107.19
2022-09-18T11:19:25.544Z,-12107.19
2022-09-18T11:21:56.320Z,-12107.19
2022-09-18T11:24:26.815Z,-12107.19
2022-09-18T11:26:57.086Z,-12107.19
2022-09-18T11:29:42.101Z,-12107.19
2022-09-18T11:32:27.751Z,-12107.19
2022-09-18T11:34:57.786Z,-12107.19
2022-09-18T11:37:36.807Z,-12107.19
2022-09-18T11:40:24.598Z,-12107.19
2022-09-18T11:42:54.540Z,-12107.19
2022-09-18T11:45:36.423Z,-12107.19
2022-09-18T11:48:49.509Z,-12105.69
2022-09-18T11:51:26.758Z,-12105.69
2022-09-18T11:54:04.346Z,-12105.69
2022-09-18T11:56:44.764Z,-12105.69
2022-09-18T11:59:40.207Z,-12105.69
2022-09-18T12:02:21.522Z,-12105.69
2022-09-18T12:05:05.631Z,-12105.69
2022-09-18T12:07:37.770Z,-12105.69
2022-09-18T12:10:20.490Z,-12105.69
2022-09-18T12:13:17.131Z,-12105.69
2022-09-18T12:15:59.213Z,-12105.69
2022-09-18T12:18:34.671Z,-12105.69
2022-09-18T12:21:12.818Z,-11850.38
2022-09-18T12:23:39.575Z,-12105.69
2022-09-18T12:26:14.919Z,-12105.69
2022-09-18T12:28:44.475Z,-12105.69
2022-09-18T12:31:20.054Z,-12105.69
2022-09-18T12:34:04.053Z,-12105.69
2022-09-18T12:36:49.917Z,-12105.69
2022-09-18T12:39:29.433Z,-12107.19
2022-09-18T12:42:19.933Z,-12107.19
2022-09-18T12:45:04.811Z,-12107.19
2022-09-18T12:47:50.587Z,-12107.19
2022-09-18T12:50:36.440Z,-12107.19
2022-09-18T12:53:22.975Z,-12107.19
2022-09-18T12:56:01.448Z,-12107.19
2022-09-18T12:58:49.443Z,-12107.19
2022-09-18T13:01:54.993Z,-12107.19
2022-09-18T13:04:32.918Z,-12107.19
2022-09-18T13:07:07.924Z,-12107.19
2022-09-18T13:09:43.804Z,-12107.19
2022-09-18T13:12:44.356Z,-12107.19
2022-09-18T13:15:33.308Z,-12105.69
2022-09-18T13:18:29.373Z,-12107.19
2022-09-18T13:20:58.791Z,-12105.69
2022-09-18T13:23:40.807Z,-12105.69
2022-09-18T13:26:12.014Z,-12105.69
2022-09-18T13:28:42.352Z,-12105.69
2022-09-18T13:31:16.055Z,-12107.19
2022-09-18T13:34:13.855Z,-12107.19
2022-09-18T13:36:43.541Z,-12105.69
2022-09-18T13:39:22.879Z,-12105.69
2022-09-18T13:41:55.918Z,-12105.69
2022-09-18T13:44:24.466Z,-12105.69
2022-09-18T13:46:54.177Z,-12105.69
2022-09-18T13:49:42.357Z,-11850.38
2022-09-18T13:52:34.937Z,-12105.69
2022-09-18T13:55:12.990Z,-12105.69
2022-09-18T13:57:43.132Z,-12105.69
2022-09-18T14:00:36.119Z,-11850.38
2022-09-18T14:03:08.490Z,-11850.38
2022-09-18T14:05:44.834Z,-11850.38
2022-09-18T14:08:37.990Z,-12105.69
2022-09-18T14:11:15.424Z,-12105.69
2022-09-18T14:13:54.129Z,-12105.69
2022-09-18T14:16:21.533Z,-12105.69
2022-09-18T14:18:48.363Z,-12105.69
2022-09-18T14:21:17.927Z,-12105.69
2022-09-18T14:23:47.963Z,-12105.69
2022-09-18T14:26:29.949Z,-12107.19
2022-09-18T14:29:11.102Z,-12105.69
2022-09-18T14:31:38.873Z,-12105.69
2022-09-18T14:34:12.820Z,-12105.69
2022-09-18T14:36:48.415Z,-12105.69
2022-09-18T14:39:25.290Z,-12105.69
2022-09-18T14:41:55.798Z,-11850.38
2022-09-18T14:44:23.294Z,-11850.38
2022-09-18T14:46:55.352Z,-11850.38
2022-09-18T14:49:31.055Z,-11595.00
2022-09-18T14:52:04.404Z,-11339.66
2022-09-18T14:54:31.548Z,-11339.66
2022-09-18T14:57:02.297Z,-11084.25
2022-09-18T14:59:29.481Z,-11339.66
2022-09-18T15:02:40.357Z,-11084.25
2022-09-18T15:05:11.687Z,-10828.84
2022-09-18T15:07:44.909Z,-11339.66
2022-09-18T15:10:16.678Z,-11339.66
2022-09-18T15:12:44.395Z,-11339.66
2022-09-18T15:15:24.554Z,-11595.00
2022-09-18T15:17:51.442Z,-11595.00
2022-09-18T15:20:18.512Z,-11595.00
2022-09-18T15:22:45.371Z,-11339.66
2022-09-18T15:25:17.150Z,-11339.66
2022-09-18T15:27:44.895Z,-11339.66
2022-09-18T15:30:16.734Z,-11339.66
2022-09-18T15:32:49.754Z,-11339.66
2022-09-18T15:35:23.606Z,-11084.25
2022-09-18T15:37:54.304Z,-11339.66
2022-09-18T15:40:34.677Z,-11595.00
2022-09-18T15:43:33.733Z,-11595.00
2022-09-18T15:46:43.475Z,-11339.66
2022-09-18T15:49:39.853Z,-11084.25
2022-09-18T15:52:35.265Z,-11084.25
2022-09-18T15:55:16.628Z,-11084.25
2022-09-18T15:57:52.188Z,-11339.66
2022-09-18T16:00:22.797Z,-11595.00
2022-09-18T16:02:55.337Z,-11339.66
2022-09-18T16:05:23.513Z,-11084.25
2022-09-18T16:08:17.843Z,-11084.25
2022-09-18T16:10:53.409Z,-11084.25
2022-09-18T16:13:21.156Z,-10828.84
2022-09-18T16:16:07.685Z,-11084.25
2022-09-18T16:18:48.153Z,-11084.25
2022-09-18T16:21:15.188Z,-11084.25
2022-09-18T16:23:59.230Z,-11339.66
2022-09-18T16:26:33.331Z,-11339.66
2022-09-18T16:29:02.916Z,-11339.66
2022-09-18T16:31:33.213Z,-11084.25
2022-09-18T16:34:29.151Z,-11084.25
2022-09-18T16:36:56.758Z,-11084.25
2022-09-18T16:39:25.174Z,-10828.84
2022-09-18T16:41:53.927Z,-10318.00
2022-09-18T16:44:24.936Z,-10573.44
2022-09-18T16:46:55.533Z,-10318.00
2022-09-18T16:49:26.455Z,-10318.00
2022-09-18T16:51:55.340Z,-10318.00
2022-09-18T16:54:23.600Z,-10318.00
2022-09-18T16:57:00.359Z,-10318.00
2022-09-18T16:59:29.587Z,-10318.00
2022-09-18T17:02:04.213Z,-10318.00
2022-09-18T17:04:35.862Z,-10573.44
2022-09-18T17:07:06.522Z,-10573.44
2022-09-18T17:09:34.280Z,-10828.84
2022-09-18T17:12:01.312Z,-10828.84
2022-09-18T17:14:28.253Z,-11084.25
2022-09-18T17:16:55.449Z,-11084.25
2022-09-18T17:19:22.481Z,-11339.66
2022-09-18T17:21:50.299Z,-11339.66
2022-09-18T17:24:17.826Z,-11339.66
2022-09-18T17:26:44.212Z,-11595.00
2022-09-18T17:29:13.784Z,-11595.00
2022-09-18T17:31:40.652Z,-11595.00
2022-09-18T17:34:22.964Z,-11595.00
2022-09-18T17:36:50.626Z,-11850.38
2022-09-18T17:39:17.520Z,-11850.38
2022-09-18T17:41:45.680Z,-11850.38
2022-09-18T17:44:12.121Z,-11850.38
2022-09-18T17:46:38.777Z,-11850.38
2022-09-18T17:49:06.545Z,-11850.38
2022-09-18T17:51:36.026Z,-12105.69
2022-09-18T17:54:08.470Z,-12105.69
2022-09-18T17:56:34.934Z,-12105.69
2022-09-18T17:59:07.639Z,-12105.69
2022-09-18T18:01:38.368Z,-12105.69
2022-09-18T18:04:05.633Z,-12105.69
2022-09-18T18:06:33.742Z,-12105.69
2022-09-18T18:09:03.870Z,-12105.69
2022-09-18T18:11:30.693Z,-12105.69
2022-09-18T18:13:58.048Z,-12105.69
2022-09-18T18:16:30.627Z,-12105.69
2022-09-18T18:19:00.844Z,-12105.69
2022-09-18T18:21:29.018Z,-12105.69
2022-09-18T18:24:04.077Z,-12105.69
2022-09-18T18:26:31.115Z,-12105.69
2022-09-18T18:28:58.692Z,-12105.69
2022-09-18T18:31:25.954Z,-12105.69
2022-09-18T18:33:58.388Z,-12105.69
2022-09-18T18:36:33.128Z,-12105.69
2022-09-18T18:39:04.186Z,-12105.69
2022-09-18T18:41:32.513Z,-12105.69
2022-09-18T18:44:03.128Z,-12105.69
2022-09-18T18:46:36.213Z,-12105.69
2022-09-18T18:49:09.527Z,-12105.69
2022-09-18T18:51:47.808Z,-12105.69
2022-09-18T18:54:18.508Z,-12105.69
2022-09-18T18:56:46.802Z,-12105.69
2022-09-18T18:59:16.394Z,-12105.69
2022-09-18T19:01:44.279Z,-12105.69
2022-09-18T19:04:13.703Z,-12105.69
2022-09-18T19:06:43.197Z,-12105.69
2022-09-18T19:09:13.252Z,-12105.69
2022-09-18T19:11:44.598Z,-12105.69
2022-09-18T19:14:37.068Z,-12105.69
2022-09-18T19:17:04.530Z,-12105.69
2022-09-18T19:19:31.724Z,-12105.69
2022-09-18T19:22:00.098Z,-12105.69
2022-09-18T19:24:28.241Z,-12105.69
2022-09-18T19:26:55.551Z,-12105.69
2022-09-18T19:29:22.736Z,-12105.69
2022-09-18T19:31:50.725Z,-12105.69
2022-09-18T19:34:19.707Z,-12105.69
2022-09-18T19:36:48.944Z,-12105.69
2022-09-18T19:39:17.693Z,-12105.69
2022-09-18T19:42:04.487Z,-11850.38
2022-09-18T19:44:40.611Z,-11850.38
2022-09-18T19:47:13.129Z,-11850.38
2022-09-18T19:49:40.892Z,-11595.00
2022-09-18T19:52:19.669Z,-11595.00
2022-09-18T19:54:48.586Z,-11595.00
2022-09-18T19:57:15.861Z,-11339.66
2022-09-18T19:59:44.755Z,-11339.66
2022-09-18T20:02:17.307Z,-11339.66
2022-09-18T20:04:44.579Z,-11084.25
2022-09-18T20:07:11.542Z,-11084.25
2022-09-18T20:09:40.630Z,-11084.25
2022-09-18T20:12:09.816Z,-11084.25
2022-09-18T20:14:36.351Z,-11084.25
2022-09-18T20:17:06.881Z,-11084.25
2022-09-18T20:19:34.902Z,-11084.25
2022-09-18T20:22:03.744Z,-11084.25
2022-09-18T20:24:32.746Z,-11084.25
2022-09-18T20:27:01.030Z,-11084.25
2022-09-18T20:29:29.008Z,-10828.84
2022-09-18T20:31:56.504Z,-10828.84
2022-09-18T20:34:25.051Z,-10828.84
2022-09-18T20:36:53.860Z,-10828.84
2022-09-18T20:39:21.579Z,-10828.84
2022-09-18T20:41:48.537Z,-10573.44
2022-09-18T20:44:15.428Z,-10573.44
2022-09-18T20:46:42.510Z,-10573.44
2022-09-18T20:49:10.338Z,-10318.00
2022-09-18T20:51:36.687Z,-10318.00
2022-09-18T20:54:07.912Z,-10062.56
2022-09-18T20:56:41.935Z,-10062.56
2022-09-18T20:59:09.883Z,-10062.56
2022-09-18T21:01:40.230Z,-10062.56
2022-09-18T21:04:07.398Z,-10062.56
2022-09-18T21:06:34.625Z,-10062.56
2022-09-18T21:09:07.447Z,-10062.56
2022-09-18T21:11:42.213Z,-10062.56
2022-09-18T21:14:11.666Z,-10318.00
2022-09-18T21:16:45.738Z,-10318.00
2022-09-18T21:19:16.956Z,-10318.00
2022-09-18T21:21:43.335Z,-10573.44
2022-09-18T21:24:09.909Z,-10828.84
2022-09-18T21:26:39.622Z,-10573.44
2022-09-18T21:29:20.483Z,-10573.44
2022-09-18T21:31:49.501Z,-10828.84
2022-09-18T21:34:23.445Z,-10828.84
2022-09-18T21:36:58.625Z,-11084.25
2022-09-18T21:39:28.222Z,-11084.25
2022-09-18T21:41:56.502Z,-11084.25
2022-09-18T21:44:27.085Z,-11084.25
2022-09-18T21:46:55.412Z,-11084.25
2022-09-18T21:49:25.388Z,-11084.25
2022-09-18T21:51:56.684Z,-11339.66
2022-09-18T21:54:24.258Z,-11084.25
2022-09-18T21:56:51.879Z,-11339.66
2022-09-18T21:59:23.269Z,-11339.66
2022-09-18T22:01:52.894Z,-11339.66
2022-09-18T22:04:24.108Z,-11339.66
2022-09-18T22:06:50.593Z,-11339.66
2022-09-18T22:09:20.212Z,-11339.66
2022-09-18T22:11:47.721Z,-11339.66
2022-09-18T22:14:16.455Z,-11339.66
2022-09-18T22:16:44.994Z,-11339.66
2022-09-18T22:19:11.720Z,-11339.66
2022-09-18T22:21:41.799Z,-11339.66
2022-09-18T22:24:15.113Z,-11339.66
2022-09-18T22:26:45.645Z,-11339.66
2022-09-18T22:29:26.585Z,-11339.66
2022-09-18T22:31:53.648Z,-11084.25
2022-09-18T22:34:26.367Z,-11084.25
2022-09-18T22:36:53.117Z,-10828.84
2022-09-18T22:39:21.159Z,-10828.84
2022-09-18T22:41:48.472Z,-10573.44
2022-09-18T22:44:15.638Z,-10573.44
2022-09-18T22:46:44.299Z,-10318.00
2022-09-18T22:49:16.262Z,-10318.00
2022-09-18T22:51:44.547Z,-10318.00
2022-09-18T22:54:12.629Z,-10062.56
2022-09-18T22:56:46.469Z,-10318.00
2022-09-18T22:59:15.767Z,-10318.00
2022-09-18T23:02:09.011Z,-10573.44
2022-09-18T23:04:36.122Z,-10318.00
2022-09-18T23:07:03.764Z,-10318.00
2022-09-18T23:09:30.675Z,-10573.44
2022-09-18T23:11:58.504Z,-10573.44
2022-09-18T23:14:29.359Z,-10573.44
2022-09-18T23:16:57.325Z,-10573.44
2022-09-18T23:19:29.450Z,-10828.84
2022-09-18T23:21:56.232Z,-10828.84
2022-09-18T23:24:23.611Z,-11084.25
2022-09-18T23:26:52.086Z,-11084.25
2022-09-18T23:29:23.970Z,-11084.25
2022-09-18T23:31:52.996Z,-11084.25
2022-09-18T23:34:23.437Z,-11339.66
2022-09-18T23:36:52.367Z,-11339.66
2022-09-18T23:39:21.255Z,-11339.66
2022-09-18T23:41:48.406Z,-11339.66
2022-09-18T23:44:16.370Z,-11595.00
2022-09-18T23:46:43.903Z,-11595.00
2022-09-18T23:49:12.165Z,-11595.00
2022-09-18T23:51:41.608Z,-11595.00
2022-09-18T23:54:14.334Z,-11595.00
2022-09-18T23:56:43.656Z,-11595.00
2022-09-18T23:59:12.168Z,-11595.00
